Terminal Aerodrome Forecast
Issued by NWS

Home | Current Version | Previous Version | Text Only | Print | Product List | Glossary On
Versions: 1 2 3 4 5 6 7 8 9 10 11 12
000
FTUS45 KLKN 261131
TAFTPH
TAF
KTPH 261131Z 2612/2712 01006KT P6SM SKC
     FM261800 24012G22KT P6SM SCT120
     FM270200 31018G28KT P6SM SCT120
     FM271000 34012KT P6SM SKC=

USA.gov is the U.S. government's official web portal to all federal, state and local government web resources and services.